Time;durP1;ratioP1;P1;durP2;ratioP2;P2;SDS_P1;SDS_P2;PMS_P1;PMS_P2;Temp;Humidity;BMP_temperature;BMP_pressure;BME280_temperature;BME280_humidity;BME280_pressure;Samples;Min_cycle;Max_cycle;Signal;HPM_P1;HPM_P2
2022/12/19 00:02:01;;;;;;;56.50;22.97;;;;;;;-2.79;93.05;102012.81;4919650;29;20395;-73
2022/12/19 00:04:26;;;;;;;54.20;23.77;;;;;;;-2.75;93.18;102012.66;4935932;29;20118;-73
2022/12/19 00:06:52;;;;;;;51.57;23.47;;;;;;;-2.71;92.67;102013.44;4919439;29;20099;-74
2022/12/19 00:09:17;;;;;;;53.57;24.60;;;;;;;-2.77;93.19;102008.31;4920152;29;20190;-73
2022/12/19 00:11:42;;;;;;;56.40;23.47;;;;;;;-2.74;93.11;102008.22;4919193;29;20023;-74
2022/12/19 00:14:10;;;;;;;47.70;21.83;;;;;;;-2.73;93.03;102015.28;4922290;29;20036;-73
2022/12/19 00:16:35;;;;;;;61.63;24.63;;;;;;;-2.79;93.16;102002.22;4917327;29;20381;-74
2022/12/19 00:19:01;;;;;;;55.43;24.47;;;;;;;-2.85;93.18;102005.03;4917983;29;20031;-75
2022/12/19 00:21:29;;;;;;;58.50;23.00;;;;;;;-2.71;92.90;102002.84;4917167;29;20032;-74
2022/12/19 00:23:54;;;;;;;51.17;22.90;;;;;;;-2.72;92.86;102008.19;4931690;29;20059;-73
2022/12/19 00:26:23;;;;;;;60.43;26.30;;;;;;;-2.81;92.64;101996.94;4915548;29;20055;-75
2022/12/19 00:28:51;;;;;;;52.97;23.43;;;;;;;-2.77;92.94;101987.13;4912909;29;20036;-73
2022/12/19 00:31:18;;;;;;;51.27;23.80;;;;;;;-2.74;92.95;101992.31;4944006;29;20028;-73
2022/12/19 00:33:44;;;;;;;57.20;25.57;;;;;;;-2.81;93.11;101981.03;4915727;29;20084;-74
2022/12/19 00:36:15;;;;;;;57.90;22.83;;;;;;;-2.75;92.91;101990.59;4916947;29;20020;-74
2022/12/19 00:38:45;;;;;;;57.72;23.92;;;;;;;-2.72;92.42;101982.56;4931754;29;20067;-74
2022/12/19 00:41:13;;;;;;;52.10;23.57;;;;;;;-2.78;92.81;101980.09;4947621;28;20068;-74
2022/12/19 00:43:39;;;;;;;52.27;22.50;;;;;;;-2.69;92.62;101974.50;4915105;29;20024;-74
2022/12/19 00:46:10;;;;;;;54.77;24.10;;;;;;;-2.73;92.80;101972.88;4937195;28;20028;-74
2022/12/19 00:48:36;;;;;;;53.78;21.63;;;;;;;-2.55;92.47;101974.94;4918204;29;20391;-74
2022/12/19 00:51:04;;;;;;;57.63;23.47;;;;;;;-2.59;92.24;101964.50;4928400;29;20037;-73
2022/12/19 00:53:29;;;;;;;60.67;22.30;;;;;;;-2.50;92.08;101959.75;4937309;29;20032;-74
2022/12/19 00:55:55;;;;;;;51.57;22.33;;;;;;;-2.58;92.34;101967.09;4915154;29;20034;-73
2022/12/19 00:58:22;;;;;;;53.77;24.77;;;;;;;-2.70;92.41;101972.75;4916738;29;20087;-74
2022/12/19 01:00:48;;;;;;;53.60;22.43;;;;;;;-2.71;92.90;101971.03;4931441;29;20024;-73
2022/12/19 01:03:13;;;;;;;50.13;22.37;;;;;;;-2.58;92.97;101967.09;4916894;29;20132;-73
2022/12/19 01:05:39;;;;;;;45.53;21.90;;;;;;;-2.65;92.82;101964.69;4915523;29;20039;-74
2022/12/19 01:08:04;;;;;;;57.73;23.00;;;;;;;-2.62;92.36;101959.28;4915625;29;20035;-74
2022/12/19 01:10:29;;;;;;;58.10;23.60;;;;;;;-2.61;92.73;101959.25;4915369;29;20031;-74
2022/12/19 01:12:55;;;;;;;52.73;22.57;;;;;;;-2.55;92.54;101951.06;4930669;29;20028;-73
2022/12/19 01:15:20;;;;;;;52.07;23.20;;;;;;;-2.58;92.12;101955.63;4931454;29;20020;-76
2022/12/19 01:17:47;;;;;;;48.30;21.47;;;;;;;-2.50;91.92;101949.16;4926239;29;20505;-74
2022/12/19 01:20:19;;;;;;;53.57;22.50;;;;;;;-2.63;92.16;101953.09;4935800;29;20053;-73
2022/12/19 01:22:45;;;;;;;46.20;22.33;;;;;;;-2.50;91.58;101942.97;4899553;29;20111;-76
2022/12/19 01:25:11;;;;;;;53.13;21.90;;;;;;;-2.49;91.65;101956.19;4907150;29;20127;-73
2022/12/19 01:27:36;;;;;;;50.17;23.03;;;;;;;-2.55;92.01;101951.06;4901239;29;20024;-73
2022/12/19 01:30:03;;;;;;;56.03;22.90;;;;;;;-2.54;92.42;101950.19;4918500;29;20024;-73
2022/12/19 01:32:29;;;;;;;51.80;22.30;;;;;;;-2.48;91.84;101952.66;4926032;29;20035;-73
2022/12/19 01:34:55;;;;;;;53.30;23.67;;;;;;;-2.51;91.93;101936.81;4898946;29;20024;-73
2022/12/19 01:37:20;;;;;;;51.80;21.60;;;;;;;-2.49;92.08;101940.28;4913965;29;20028;-73
2022/12/19 01:39:46;;;;;;;49.83;21.80;;;;;;;-2.56;92.17;101922.84;4902582;29;20055;-76
2022/12/19 01:42:20;;;;;;;52.20;23.30;;;;;;;-2.54;92.25;101926.31;4909882;29;20036;-72
2022/12/19 01:45:07;;;;;;;53.27;23.60;;;;;;;-2.43;92.00;101922.44;4906622;29;20023;-73
2022/12/19 01:48:00;;;;;;;47.70;21.73;;;;;;;-2.48;91.80;101922.56;4930436;29;20036;-73
2022/12/19 01:50:33;;;;;;;54.47;23.73;;;;;;;-2.43;92.15;101911.84;4899877;29;20047;-72
2022/12/19 01:53:00;;;;;;;55.70;21.87;;;;;;;-2.35;91.06;101913.31;4917937;29;20028;-73
2022/12/19 01:55:26;;;;;;;54.23;23.93;;;;;;;-2.47;91.90;101911.94;4907217;29;20103;-73
2022/12/19 01:57:55;;;;;;;46.03;20.83;;;;;;;-2.41;91.91;101910.00;4910770;29;20110;-74
2022/12/19 02:00:20;;;;;;;46.60;20.60;;;;;;;-2.43;92.26;101911.84;4902249;29;20020;-75
2022/12/19 02:03:00;;;;;;;45.60;21.37;;;;;;;-2.42;91.90;101905.59;4917438;29;20038;-73
2022/12/19 02:05:26;;;;;;;50.70;20.90;;;;;;;-2.21;91.14;101902.28;4909328;29;20024;-75
2022/12/19 02:07:51;;;;;;;50.33;22.03;;;;;;;-2.32;91.73;101888.50;4905918;29;20444;-74
2022/12/19 02:10:17;;;;;;;45.37;20.07;;;;;;;-2.31;91.74;101895.53;4923239;29;20110;-73
2022/12/19 02:12:44;;;;;;;54.80;22.37;;;;;;;-2.24;91.93;101889.09;4911713;29;20038;-74
2022/12/19 02:15:11;;;;;;;54.67;22.00;;;;;;;-2.21;92.05;101881.06;4901441;29;20036;-73
2022/12/19 02:17:53;;;;;;;44.07;20.50;;;;;;;-2.30;91.83;101870.72;4900512;29;20066;-74
2022/12/19 02:20:38;;;;;;;47.90;21.87;;;;;;;-2.31;91.67;101863.69;4926693;29;20024;-73
2022/12/19 02:23:41;;;;;;;50.73;21.07;;;;;;;-2.19;92.17;101852.66;4916601;29;20020;-75
2022/12/19 02:26:34;;;;;;;49.73;21.13;;;;;;;-2.22;91.68;101853.66;4922704;29;20505;-73
2022/12/19 02:29:17;;;;;;;46.83;21.63;;;;;;;-2.25;92.87;101842.28;4898088;29;20048;-76
2022/12/19 02:31:52;;;;;;;51.20;20.33;;;;;;;-2.17;91.59;101840.22;4914288;29;20039;-75
2022/12/19 02:34:35;;;;;;;46.53;21.80;;;;;;;-2.20;91.88;101840.34;4898020;29;20039;-75
2022/12/19 02:37:19;;;;;;;51.30;22.13;;;;;;;-2.12;92.25;101838.28;4913249;29;20027;-73
2022/12/19 02:39:55;;;;;;;45.03;19.70;;;;;;;-2.07;91.75;101831.03;4909293;29;20125;-73
2022/12/19 02:42:27;;;;;;;51.27;23.33;;;;;;;-2.13;92.52;101831.25;4932156;29;20031;-73
2022/12/19 02:44:53;;;;;;;48.07;21.43;;;;;;;-2.11;92.88;101837.34;4924499;29;20037;-73
2022/12/19 02:47:20;;;;;;;48.80;22.03;;;;;;;-2.13;93.32;101836.53;4908660;29;20028;-73
2022/12/19 02:49:45;;;;;;;51.23;22.80;;;;;;;-2.10;93.94;101836.41;4916202;29;20074;-72
2022/12/19 02:52:32;;;;;;;47.63;22.23;;;;;;;-2.11;94.43;101834.69;4932222;29;20084;-73
2022/12/19 02:55:07;;;;;;;54.03;21.73;;;;;;;-2.11;94.77;101840.00;4921019;29;20040;-73
2022/12/19 02:58:03;;;;;;;44.93;21.80;;;;;;;-2.16;94.75;101847.25;4916819;29;20028;-73
2022/12/19 03:00:35;;;;;;;45.67;20.73;;;;;;;-2.02;94.87;101849.41;4923794;29;20098;-72
2022/12/19 03:03:20;;;;;;;48.47;19.88;;;;;;;-2.00;94.85;101845.81;4911468;29;20395;-75
2022/12/19 03:06:01;;;;;;;48.10;20.47;;;;;;;-1.89;95.44;101839.22;4897455;29;20043;-75
2022/12/19 03:08:36;;;;;;;51.47;21.13;;;;;;;-1.92;95.71;101829.59;4898099;29;20036;-74
2022/12/19 03:11:12;;;;;;;58.97;20.97;;;;;;;-1.88;96.16;101819.75;4905788;29;20070;-75
2022/12/19 03:13:53;;;;;;;47.57;20.90;;;;;;;-1.81;96.06;101821.25;4900730;29;20028;-75
2022/12/19 03:16:19;;;;;;;54.33;21.95;;;;;;;-1.91;96.79;101821.56;4929239;29;20024;-75
2022/12/19 03:18:44;;;;;;;55.80;23.53;;;;;;;-1.87;97.25;101821.47;4913721;29;20039;-76
2022/12/19 03:21:28;;;;;;;50.03;22.13;;;;;;;-1.79;98.35;101816.75;4929275;29;20028;-75
2022/12/19 03:23:54;;;;;;;51.23;23.53;;;;;;;-1.79;97.82;101808.78;4928779;29;20031;-75
2022/12/19 03:26:23;;;;;;;46.33;21.50;;;;;;;-1.79;97.72;101808.78;4929279;29;20074;-75
2022/12/19 03:28:56;;;;;;;53.97;23.53;;;;;;;-1.74;98.57;101796.22;4926032;29;20052;-75
2022/12/19 03:31:26;;;;;;;49.03;21.87;;;;;;;-1.78;98.89;101794.59;4911911;29;20021;-75
2022/12/19 03:33:58;;;;;;;49.33;23.63;;;;;;;-1.87;98.88;101805.56;4913437;29;20087;-75
2022/12/19 03:36:29;;;;;;;53.53;24.10;;;;;;;-1.77;99.49;101791.00;4944964;28;20028;-75
2022/12/19 03:38:55;;;;;;;51.77;23.10;;;;;;;-1.82;100.00;101787.69;4945968;29;20024;-74
2022/12/19 03:44:12;;;;;;;51.37;22.60;;;;;;;-1.82;100.00;101777.06;4913852;29;20021;-75
2022/12/19 03:46:42;;;;;;;53.90;23.60;;;;;;;-1.81;100.00;101778.78;4920666;29;20098;-75
2022/12/19 03:49:07;;;;;;;49.33;23.00;;;;;;;-1.71;100.00;101769.53;4915060;29;20542;-75
2022/12/19 03:51:38;;;;;;;50.67;21.87;;;;;;;-1.69;100.00;101783.66;4914585;29;20024;-75
2022/12/19 03:54:17;;;;;;;50.70;20.00;;;;;;;-1.65;100.00;101774.63;4929010;29;20043;-73
2022/12/19 03:56:52;;;;;;;50.70;23.30;;;;;;;-1.61;100.00;101770.09;4912965;29;20023;-73
2022/12/19 03:59:30;;;;;;;50.20;22.57;;;;;;;-1.62;100.00;101771.88;4932193;29;20074;-75
2022/12/19 04:01:57;;;;;;;61.93;24.87;;;;;;;-1.71;100.00;101764.22;4910007;29;20034;-75
2022/12/19 04:04:24;;;;;;;50.00;22.77;;;;;;;-1.75;100.00;101768.81;4916243;29;20024;-75
2022/12/19 04:06:50;;;;;;;56.43;22.27;;;;;;;-1.75;100.00;101757.34;4916531;29;20122;-76
2022/12/19 04:09:18;;;;;;;49.30;22.40;;;;;;;-1.64;100.00;101755.13;4948480;28;20028;-76
2022/12/19 04:11:49;;;;;;;53.60;23.03;;;;;;;-1.54;100.00;101745.88;4916270;29;20107;-76
2022/12/19 04:14:26;;;;;;;47.70;21.58;;;;;;;-1.57;100.00;101745.97;4919559;29;20123;-72
2022/12/19 04:17:29;;;;;;;49.17;23.63;;;;;;;-1.61;100.00;101744.38;4944139;28;20038;-73
2022/12/19 04:20:07;;;;;;;49.73;23.93;;;;;;;-1.75;100.00;101741.41;4929376;29;20039;-72
2022/12/19 04:22:42;;;;;;;49.40;22.87;;;;;;;-1.67;100.00;101720.72;4919705;29;20103;-74
2022/12/19 04:25:12;;;;;;;52.53;24.10;;;;;;;-1.58;100.00;101722.16;4943406;28;20486;-73
2022/12/19 04:27:42;;;;;;;51.73;21.67;;;;;;;-1.53;100.00;101715.75;4936789;29;20035;-75
2022/12/19 04:30:11;;;;;;;46.93;21.60;;;;;;;-1.48;100.00;101718.22;4919881;29;20028;-75
2022/12/19 04:32:39;;;;;;;50.63;22.73;;;;;;;-1.54;100.00;101724.63;4919721;29;20028;-75
2022/12/19 04:35:04;;;;;;;48.03;22.40;;;;;;;-1.43;100.00;101721.56;4919354;29;20030;-76
2022/12/19 04:37:30;;;;;;;52.37;22.93;;;;;;;-1.44;100.00;101706.53;4935677;29;20095;-76
2022/12/19 04:39:55;;;;;;;49.63;22.70;;;;;;;-1.39;100.00;101712.53;4919749;29;20028;-73
2022/12/19 04:42:21;;;;;;;51.23;22.60;;;;;;;-1.34;100.00;101704.38;4936490;29;20046;-72
2022/12/19 04:44:46;;;;;;;45.97;21.93;;;;;;;-1.35;100.00;101694.69;4935096;29;20023;-72
2022/12/19 04:47:11;;;;;;;47.33;21.63;;;;;;;-1.28;100.00;101682.91;4941172;29;20034;-72
2022/12/19 04:49:37;;;;;;;49.50;21.67;;;;;;;-1.33;100.00;101684.88;4919319;29;20075;-73
2022/12/19 04:52:02;;;;;;;49.30;21.37;;;;;;;-1.37;100.00;101685.00;4935706;29;20035;-74
2022/12/19 04:54:27;;;;;;;49.73;21.97;;;;;;;-1.29;100.00;101657.25;4935925;29;20024;-72
2022/12/19 04:56:53;;;;;;;50.67;22.63;;;;;;;-1.35;100.00;101660.16;4950459;28;20031;-72
2022/12/19 04:59:18;;;;;;;43.80;21.37;;;;;;;-1.32;100.00;101660.88;4919413;29;20517;-72
2022/12/19 05:01:44;;;;;;;47.53;23.17;;;;;;;-1.29;100.00;101651.94;4936078;29;20031;-73
2022/12/19 05:04:10;;;;;;;51.10;22.13;;;;;;;-1.27;100.00;101647.41;4919215;29;20127;-73
2022/12/19 05:06:35;;;;;;;45.17;21.60;;;;;;;-1.25;100.00;101649.06;4935725;29;20136;-73
2022/12/19 05:09:01;;;;;;;45.27;20.80;;;;;;;-1.21;100.00;101641.84;4931509;29;20043;-75
2022/12/19 05:11:26;;;;;;;45.07;21.33;;;;;;;-1.19;100.00;101647.97;4931342;29;20044;-73
2022/12/19 05:13:51;;;;;;;51.37;23.10;;;;;;;-1.15;100.00;101641.59;4950339;28;20036;-73
2022/12/19 05:16:17;;;;;;;55.47;22.27;;;;;;;-1.11;100.00;101649.38;4949826;28;20090;-73
2022/12/19 05:18:43;;;;;;;49.90;21.37;;;;;;;-1.07;100.00;101650.09;4919348;29;20075;-73
2022/12/19 05:21:08;;;;;;;48.77;22.17;;;;;;;-0.96;100.00;101642.56;4935490;29;20058;-73
2022/12/19 05:23:34;;;;;;;54.77;22.80;;;;;;;-1.13;100.00;101631.75;4918487;29;20118;-72
2022/12/19 05:26:01;;;;;;;46.17;20.93;;;;;;;-1.10;100.00;101624.53;4935606;29;20016;-75
2022/12/19 05:28:27;;;;;;;50.57;21.23;;;;;;;-0.97;100.00;101630.19;4934191;29;20248;-74
2022/12/19 05:31:27;;;;;;;45.97;21.37;;;;;;;-1.02;100.00;101610.91;4918339;29;20028;-74
2022/12/19 05:33:52;;;;;;;50.13;24.53;;;;;;;-1.07;100.00;101623.53;4914746;29;20408;-75
2022/12/19 05:36:18;;;;;;;46.23;22.73;;;;;;;-1.01;100.00;101617.97;4946443;28;20019;-75
2022/12/19 05:38:44;;;;;;;44.60;21.67;;;;;;;-0.92;100.00;101622.88;4918486;29;20023;-74
2022/12/19 05:41:18;;;;;;;48.23;22.17;;;;;;;-0.94;100.00;101616.75;4918296;29;20036;-75
2022/12/19 05:43:48;;;;;;;52.63;22.10;;;;;;;-0.90;100.00;101613.06;4933673;29;20023;-75
2022/12/19 05:46:13;;;;;;;56.10;22.83;;;;;;;-0.82;100.00;101624.22;4932671;29;20024;-73
2022/12/19 05:48:38;;;;;;;47.13;23.07;;;;;;;-0.84;100.00;101615.44;4919702;29;20039;-73
2022/12/19 05:51:04;;;;;;;39.83;20.63;;;;;;;-0.73;100.00;101622.06;4934862;29;20058;-75
2022/12/19 05:53:29;;;;;;;48.33;20.83;;;;;;;-0.63;100.00;101612.75;4917939;29;20035;-73
2022/12/19 05:56:06;;;;;;;47.20;22.00;;;;;;;-0.69;100.00;101613.03;4949789;28;20043;-73
2022/12/19 05:58:32;;;;;;;53.40;21.13;;;;;;;-0.62;100.00;101619.81;4949870;28;20024;-73
2022/12/19 06:01:22;;;;;;;45.20;21.97;;;;;;;-0.63;100.00;101607.44;4918006;29;20034;-73
2022/12/19 06:03:49;;;;;;;49.50;22.47;;;;;;;-0.53;100.00;101608.75;4905203;29;20051;-73
2022/12/19 06:06:17;;;;;;;45.03;22.67;;;;;;;-0.55;100.00;101605.28;4917588;29;20475;-73
2022/12/19 06:08:42;;;;;;;50.10;21.97;;;;;;;-0.47;100.00;101597.81;4934661;29;20028;-74
2022/12/19 06:11:09;;;;;;;42.93;21.13;;;;;;;-0.47;100.00;101587.19;4917611;29;20119;-73
2022/12/19 06:13:36;;;;;;;54.73;21.33;;;;;;;-0.38;100.00;101581.47;4915202;29;20046;-73
2022/12/19 06:16:21;;;;;;;46.67;21.70;;;;;;;-0.31;100.00;101569.59;4906067;29;20028;-73
2022/12/19 06:18:46;;;;;;;42.17;20.47;;;;;;;-0.34;100.00;101567.06;4891363;29;20039;-73
2022/12/19 06:21:13;;;;;;;52.03;23.53;;;;;;;-0.37;100.00;101561.91;4898448;29;20458;-74
2022/12/19 06:23:39;;;;;;;53.47;22.10;;;;;;;-0.29;100.00;101565.06;4898145;29;20039;-73
2022/12/19 06:26:06;;;;;;;53.90;22.70;;;;;;;-0.22;100.00;101549.66;4898384;29;20032;-73
2022/12/19 06:28:33;;;;;;;46.53;22.53;;;;;;;-0.30;100.00;101550.03;4898468;29;20087;-75
2022/12/19 06:31:00;;;;;;;48.93;23.03;;;;;;;-0.28;100.00;101539.31;4898468;29;20048;-75
2022/12/19 06:33:26;;;;;;;51.47;22.50;;;;;;;-0.20;100.00;101537.13;4897950;29;20476;-73
2022/12/19 06:36:06;;;;;;;48.43;22.93;;;;;;;-0.20;100.00;101542.47;4897781;29;20024;-74
2022/12/19 06:38:33;;;;;;;52.33;24.30;;;;;;;-0.19;100.00;101540.69;4914237;29;20032;-74
2022/12/19 06:43:43;;;;;;;44.70;20.83;;;;;;;-0.24;100.00;101550.69;4912592;29;20024;-73
2022/12/19 06:46:09;;;;;;;50.20;23.43;;;;;;;-0.17;100.00;101546.78;4932863;29;20086;-73
2022/12/19 06:48:34;;;;;;;50.43;21.90;;;;;;;-0.02;100.00;101540.72;4931331;29;20028;-74
2022/12/19 06:51:00;;;;;;;41.90;21.40;;;;;;;-0.12;100.00;101539.47;4913589;29;20028;-75
2022/12/19 06:53:25;;;;;;;44.77;22.03;;;;;;;0.00;100.00;101544.19;4914568;29;20505;-75
2022/12/19 06:55:53;;;;;;;45.30;21.87;;;;;;;0.05;100.00;101526.19;4897888;29;20032;-74
2022/12/19 06:58:19;;;;;;;45.63;20.50;;;;;;;0.02;100.00;101539.66;4912502;29;20026;-75
2022/12/19 07:00:44;;;;;;;42.80;21.13;;;;;;;0.02;100.00;101536.13;4893917;29;20119;-74
2022/12/19 07:03:13;;;;;;;37.90;20.27;;;;;;;0.03;100.00;101533.38;4897569;29;20127;-74
2022/12/19 07:05:39;;;;;;;43.27;21.33;;;;;;;0.04;100.00;101543.09;4913772;29;20032;-75
2022/12/19 07:08:04;;;;;;;42.20;20.77;;;;;;;-0.05;100.00;101533.75;4897757;29;20391;-75
2022/12/19 07:10:29;;;;;;;41.40;22.27;;;;;;;0.01;100.00;101524.63;4897618;29;20032;-74
2022/12/19 07:12:55;;;;;;;49.93;21.93;;;;;;;0.10;100.00;101528.63;4898623;29;20028;-74
2022/12/19 07:15:20;;;;;;;47.00;22.30;;;;;;;0.10;100.00;101529.47;4913220;29;20024;-74
2022/12/19 07:17:46;;;;;;;46.90;21.97;;;;;;;0.09;100.00;101521.56;4916363;29;20375;-74
2022/12/19 07:20:13;;;;;;;48.97;21.70;;;;;;;0.16;100.00;101523.84;4916627;29;20027;-74
2022/12/19 07:22:39;;;;;;;43.90;21.47;;;;;;;0.21;100.00;101521.84;4916112;29;20531;-72
2022/12/19 07:25:05;;;;;;;43.23;22.23;;;;;;;0.17;100.00;101525.56;4915621;29;20027;-72
2022/12/19 07:27:31;;;;;;;46.13;20.97;;;;;;;0.33;100.00;101528.34;4927615;29;20506;-71
2022/12/19 07:29:57;;;;;;;42.73;19.90;;;;;;;0.42;100.00;101529.69;4916085;29;20032;-70
2022/12/19 07:32:22;;;;;;;42.47;20.37;;;;;;;0.28;100.00;101521.53;4915683;29;20034;-71
2022/12/19 07:34:47;;;;;;;43.57;20.13;;;;;;;0.31;100.00;101526.69;4916780;29;20035;-70
2022/12/19 07:37:13;;;;;;;44.30;20.77;;;;;;;0.41;100.00;101512.00;4936772;29;20048;-70
2022/12/19 07:39:38;;;;;;;41.93;19.80;;;;;;;0.50;100.00;101516.84;4934396;29;20036;-71
2022/12/19 07:42:03;;;;;;;38.57;20.40;;;;;;;0.41;100.00;101518.19;4919376;29;20032;-70
2022/12/19 07:44:29;;;;;;;39.93;21.17;;;;;;;0.42;100.00;101524.38;4935143;29;20050;-70
2022/12/19 07:46:55;;;;;;;45.40;22.50;;;;;;;0.42;100.00;101519.03;4934311;29;20058;-71
2022/12/19 07:49:20;;;;;;;49.93;23.00;;;;;;;0.47;100.00;101514.34;4920189;29;20082;-71
2022/12/19 07:51:45;;;;;;;51.10;23.30;;;;;;;0.40;100.00;101515.59;4936936;29;20098;-71
2022/12/19 07:54:11;;;;;;;50.03;23.90;;;;;;;0.43;100.00;101521.63;4919572;29;20044;-71
2022/12/19 07:56:36;;;;;;;52.87;24.80;;;;;;;0.40;100.00;101520.94;4947974;28;20115;-72
2022/12/19 07:59:02;;;;;;;48.67;21.47;;;;;;;0.40;100.00;101520.94;4937414;29;20035;-72
2022/12/19 08:01:27;;;;;;;59.20;26.27;;;;;;;0.33;100.00;101519.50;4920251;29;20031;-73
2022/12/19 08:03:54;;;;;;;54.97;25.90;;;;;;;0.41;100.00;101512.00;4920009;29;20035;-73
2022/12/19 08:06:20;;;;;;;65.50;24.83;;;;;;;0.44;100.00;101512.69;4920071;29;20031;-74
2022/12/19 08:08:45;;;;;;;60.03;27.40;;;;;;;0.45;100.00;101505.53;4919895;29;20031;-72
2022/12/19 08:11:16;;;;;;;57.40;26.50;;;;;;;0.43;100.00;101516.28;4936873;29;20032;-71
2022/12/19 08:13:41;;;;;;;58.80;28.17;;;;;;;0.51;100.00;101515.88;4936909;29;20031;-71
2022/12/19 08:16:07;;;;;;;57.77;26.67;;;;;;;0.46;100.00;101515.28;4929169;29;20043;-71
2022/12/19 08:18:32;;;;;;;74.77;28.43;;;;;;;0.48;100.00;101513.41;4908639;29;20039;-70
2022/12/19 08:20:57;;;;;;;63.37;28.60;;;;;;;0.49;100.00;101520.44;4900864;29;20119;-70
2022/12/19 08:23:23;;;;;;;64.70;28.07;;;;;;;0.53;100.00;101511.38;4917687;29;20063;-70
2022/12/19 08:25:57;;;;;;;70.43;28.83;;;;;;;0.53;100.00;101512.22;4908160;29;20115;-70
2022/12/19 08:28:22;;;;;;;71.23;30.43;;;;;;;0.55;100.00;101506.81;4917716;29;20472;-70
2022/12/19 08:30:47;;;;;;;70.20;30.73;;;;;;;0.50;100.00;101511.50;4904005;29;20094;-72
2022/12/19 08:33:13;;;;;;;79.27;32.37;;;;;;;0.57;100.00;101496.94;4951316;28;20038;-71
2022/12/19 08:35:38;;;;;;;73.67;33.33;;;;;;;0.57;100.00;101483.59;4951094;29;20032;-71
2022/12/19 08:38:03;;;;;;;74.63;32.07;;;;;;;0.61;100.00;101482.53;4936622;29;20042;-71
2022/12/19 08:40:29;;;;;;;78.00;32.17;;;;;;;0.58;100.00;101477.34;4919938;29;20028;-71
2022/12/19 08:42:54;;;;;;;82.40;35.03;;;;;;;0.69;100.00;101477.66;4900718;29;20075;-71
2022/12/19 08:45:19;;;;;;;85.37;34.87;;;;;;;0.71;100.00;101473.09;4917417;29;20087;-71
2022/12/19 08:47:45;;;;;;;74.90;31.87;;;;;;;0.73;100.00;101481.88;4916300;29;20031;-71
2022/12/19 08:50:10;;;;;;;85.53;33.70;;;;;;;0.79;100.00;101481.56;4900834;29;20127;-71
2022/12/19 08:52:36;;;;;;;85.00;34.27;;;;;;;0.74;100.00;101472.94;4900349;29;20032;-71
2022/12/19 08:55:03;;;;;;;86.17;34.90;;;;;;;0.72;100.00;101480.16;4931808;29;20044;-71
2022/12/19 08:57:28;;;;;;;85.57;33.47;;;;;;;0.82;100.00;101470.72;4900147;29;20403;-71
2022/12/19 08:59:54;;;;;;;88.93;36.70;;;;;;;0.85;100.00;101479.50;4900891;29;20036;-72
2022/12/19 09:02:19;;;;;;;76.07;33.17;;;;;;;0.81;100.00;101469.00;4916983;29;20028;-71
2022/12/19 09:04:44;;;;;;;85.87;36.13;;;;;;;0.80;100.00;101461.09;4900242;29;20028;-72
2022/12/19 09:07:10;;;;;;;91.97;35.17;;;;;;;0.87;100.00;101473.16;4900295;29;20051;-72
2022/12/19 09:09:35;;;;;;;89.57;34.83;;;;;;;0.87;100.00;101474.97;4900260;29;20083;-72
2022/12/19 09:12:00;;;;;;;90.07;35.60;;;;;;;0.87;100.00;101457.16;4916544;29;20038;-73
2022/12/19 09:14:26;;;;;;;101.70;40.30;;;;;;;0.82;100.00;101460.06;4910216;29;20040;-74
2022/12/19 09:16:51;;;;;;;105.13;39.47;;;;;;;0.86;100.00;101459.91;4931390;29;20036;-75
2022/12/19 09:19:16;;;;;;;94.93;37.33;;;;;;;0.90;100.00;101461.47;4916729;29;20038;-77
2022/12/19 09:21:43;;;;;;;104.90;37.73;;;;;;;0.86;100.00;101465.25;4946670;29;20068;-76
2022/12/19 09:24:09;;;;;;;110.57;42.87;;;;;;;0.86;100.00;101454.59;4916460;29;20118;-76
2022/12/19 09:26:37;;;;;;;95.50;39.40;;;;;;;0.85;100.00;101468.84;4932549;29;20059;-76
2022/12/19 09:29:03;;;;;;;113.37;43.03;;;;;;;0.91;100.00;101468.50;4952059;28;20032;-76
2022/12/19 09:31:28;;;;;;;109.63;42.27;;;;;;;0.94;100.00;101463.03;4914163;29;20031;-77
2022/12/19 09:33:54;;;;;;;95.23;40.47;;;;;;;0.94;100.00;101453.22;4914254;29;20088;-76
2022/12/19 09:36:22;;;;;;;120.63;42.43;;;;;;;1.03;100.00;101451.84;4915680;29;20028;-76
2022/12/19 09:38:48;;;;;;;103.50;40.77;;;;;;;1.01;100.00;101453.75;4914473;29;20043;-76
2022/12/19 09:41:51;;;;;;;114.63;40.10;;;;;;;1.04;100.00;101448.25;4930313;29;20067;-75
2022/12/19 09:44:47;;;;;;;112.87;42.57;;;;;;;0.99;100.00;101439.66;4930997;29;20036;-75
2022/12/19 09:47:16;;;;;;;105.77;39.60;;;;;;;0.96;100.00;101445.13;4930511;29;20040;-75
2022/12/19 09:49:44;;;;;;;116.40;43.93;;;;;;;1.01;100.00;101437.75;4914158;29;20039;-75
2022/12/19 09:52:31;;;;;;;108.93;39.87;;;;;;;1.04;100.00;101442.91;4914264;29;20036;-75
2022/12/19 09:55:21;;;;;;;106.13;41.10;;;;;;;1.02;100.00;101440.31;4930070;29;20064;-75
2022/12/19 09:58:12;;;;;;;122.27;45.80;;;;;;;1.05;100.00;101434.00;4921074;29;20044;-76
2022/12/19 10:00:49;;;;;;;117.80;44.57;;;;;;;1.03;100.00;101430.53;4948169;28;20145;-76
2022/12/19 10:03:22;;;;;;;120.90;46.53;;;;;;;1.04;100.00;101421.56;4936949;29;20035;-75
2022/12/19 10:05:56;;;;;;;130.53;46.57;;;;;;;1.09;100.00;101419.53;4913770;29;20395;-76
2022/12/19 10:08:30;;;;;;;135.63;50.00;;;;;;;1.11;100.00;101407.00;4911116;29;20035;-76
2022/12/19 10:11:11;;;;;;;149.27;50.67;;;;;;;1.06;100.00;101409.03;4906526;29;20039;-76
2022/12/19 10:14:14;;;;;;;139.73;49.57;;;;;;;1.18;100.00;101413.72;4899410;29;20040;-77
2022/12/19 10:17:06;;;;;;;138.27;47.50;;;;;;;1.21;100.00;101412.66;4911151;29;20392;-74
2022/12/19 10:19:50;;;;;;;139.20;48.50;;;;;;;1.25;100.00;101407.09;4911268;29;20032;-74
2022/12/19 10:22:44;;;;;;;128.83;46.07;;;;;;;1.12;100.00;101408.72;4927288;29;20075;-74
2022/12/19 10:25:22;;;;;;;133.17;46.93;;;;;;;1.26;100.00;101403.47;4926337;29;20477;-74
2022/12/19 10:27:50;;;;;;;144.83;48.47;;;;;;;1.27;100.00;101397.19;4925745;29;20028;-74
2022/12/19 10:30:20;;;;;;;154.70;49.50;;;;;;;1.40;100.00;101401.81;4910803;29;20071;-74
2022/12/19 10:33:11;;;;;;;134.07;50.07;;;;;;;1.31;100.00;101397.88;4895246;29;20024;-74
2022/12/19 10:35:42;;;;;;;163.73;50.53;;;;;;;1.42;100.00;101383.91;4925474;29;20032;-73
2022/12/19 10:38:23;;;;;;;132.77;44.57;;;;;;;1.49;100.00;101390.63;4894762;29;20035;-73
2022/12/19 10:41:09;;;;;;;143.40;46.97;;;;;;;1.50;100.00;101381.66;4909734;29;20028;-73
2022/12/19 10:44:08;;;;;;;167.83;52.50;;;;;;;1.48;100.00;101383.56;4925437;29;20031;-73
2022/12/19 10:46:38;;;;;;;145.83;47.10;;;;;;;1.51;100.00;101378.06;4908944;29;20052;-72
2022/12/19 10:49:20;;;;;;;128.53;47.03;;;;;;;1.53;100.00;101376.16;4911585;29;20032;-73
2022/12/19 10:51:57;;;;;;;123.20;42.40;;;;;;;1.62;100.00;101380.97;4925687;29;20040;-72
2022/12/19 10:54:44;;;;;;;134.47;51.23;;;;;;;1.56;100.00;101370.63;4910083;29;20452;-72
2022/12/19 10:57:21;;;;;;;163.03;52.23;;;;;;;1.70;100.00;101372.53;4909085;29;20406;-72
2022/12/19 11:00:05;;;;;;;126.83;46.17;;;;;;;1.66;100.00;101371.84;4909055;29;20091;-72
2022/12/19 11:02:36;;;;;;;155.13;51.63;;;;;;;1.66;100.00;101371.84;4925070;29;20120;-71
2022/12/19 11:05:20;;;;;;;157.68;50.35;;;;;;;1.66;100.00;101350.50;4910254;29;20079;-72
2022/12/19 11:08:06;;;;;;;155.40;49.53;;;;;;;1.71;100.00;101348.41;4924762;29;20164;-72
2022/12/19 11:10:39;;;;;;;148.27;50.30;;;;;;;1.70;100.00;101352.03;4901919;29;20167;-71
2022/12/19 11:13:28;;;;;;;140.60;46.90;;;;;;;1.76;100.00;101351.69;4908685;29;20036;-72
2022/12/19 11:15:56;;;;;;;157.40;51.60;;;;;;;1.80;100.00;101353.19;4910000;29;20059;-70
2022/12/19 11:18:22;;;;;;;155.57;51.67;;;;;;;1.81;100.00;101344.25;4909949;29;20038;-71
2022/12/19 11:21:03;;;;;;;149.47;51.37;;;;;;;1.80;100.00;101334.50;4907776;29;20020;-72
2022/12/19 11:23:30;;;;;;;155.23;49.03;;;;;;;1.90;100.00;101348.19;4892357;29;20032;-72
2022/12/19 11:26:00;;;;;;;149.00;48.80;;;;;;;1.95;100.00;101339.88;4908748;29;20031;-72
2022/12/19 11:28:33;;;;;;;136.13;49.40;;;;;;;2.01;100.00;101334.19;4909608;29;20042;-73